Terminal Aerodrome Forecast
Issued by NWS

Home | Current Version | Previous Version | Graphics & Text | Print | Product List | Glossary On
Versions: 1 2 3 4 5 6 7 8 9 10 11 12 13 14 15 16 17 18 19 20 21 22 23 24 25 26 27
000
FTUS43 KABR 121000 AAA
TAFMBG
TAF AMD
KMBG 121007Z 1210/1306 03011KT P6SM -SHRA VCTS SCT040CB OVC070
      TEMPO 1210/1211 TS BKN100CB
     FM121200 04011KT P6SM VCSH BKN035
     FM121800 24005KT P6SM SCT250=

USA.gov is the U.S. government's official web portal to all federal, state and local government web resources and services.